createdAt,value
2024-02-20T00:00:07.310Z,0.91
2024-02-20T00:01:07.458Z,1.13
2024-02-20T00:02:07.554Z,0.83
2024-02-20T00:03:07.406Z,0.90
2024-02-20T00:04:07.464Z,1.17
2024-02-20T00:05:07.491Z,0.95
2024-02-20T00:06:07.498Z,0.88
2024-02-20T00:07:07.566Z,0.98
2024-02-20T00:08:07.536Z,1.18
2024-02-20T00:09:07.550Z,0.87
2024-02-20T00:10:07.689Z,0.72
2024-02-20T00:11:07.645Z,0.96
2024-02-20T00:12:07.639Z,1.03
2024-02-20T00:13:07.718Z,0.87
2024-02-20T00:14:07.706Z,0.82
2024-02-20T00:15:07.718Z,0.65
2024-02-20T00:16:07.817Z,0.95
2024-02-20T00:17:07.780Z,0.97
2024-02-20T00:18:07.865Z,1.03
2024-02-20T00:19:07.944Z,1.09
2024-02-20T00:20:08.016Z,0.82
2024-02-20T00:21:07.904Z,1.09
2024-02-20T00:22:07.970Z,0.71
2024-02-20T00:23:07.938Z,0.97
2024-02-20T00:24:07.992Z,1.03
2024-02-20T00:25:08.031Z,0.75
2024-02-20T00:26:08.023Z,1.35
2024-02-20T00:27:08.053Z,0.96
2024-02-20T00:28:08.098Z,0.88
2024-02-20T00:29:08.134Z,0.96
2024-02-20T00:30:08.156Z,0.84
2024-02-20T00:31:08.218Z,0.64
2024-02-20T00:32:08.204Z,1.09
2024-02-20T00:33:08.282Z,0.84
2024-02-20T00:34:08.348Z,1.25
2024-02-20T00:35:08.386Z,0.78
2024-02-20T00:36:08.337Z,0.92
2024-02-20T00:37:08.360Z,0.95
2024-02-20T00:38:08.383Z,0.80
2024-02-20T00:39:08.517Z,0.82
2024-02-20T00:40:08.526Z,0.83
2024-02-20T00:41:08.479Z,1.10
2024-02-20T00:42:08.509Z,0.76
2024-02-20T00:43:08.551Z,0.82
2024-02-20T00:44:08.595Z,0.87
2024-02-20T00:45:08.605Z,0.83
2024-02-20T00:46:08.637Z,1.06
2024-02-20T00:47:08.660Z,0.94
2024-02-20T00:48:08.748Z,0.90
2024-02-20T00:49:08.922Z,1.12
2024-02-20T00:50:08.803Z,0.96
2024-02-20T00:51:08.797Z,1.18
2024-02-20T00:52:09.020Z,0.94
2024-02-20T00:53:08.847Z,0.88
2024-02-20T00:54:08.878Z,0.91
2024-02-20T00:55:09.020Z,0.79
2024-02-20T00:56:08.936Z,0.85
2024-02-20T00:57:08.963Z,0.89
2024-02-20T00:58:09.074Z,1.02
2024-02-20T00:59:09.035Z,1.02
2024-02-20T01:00:09.072Z,1.04
2024-02-20T01:01:09.240Z,0.85
2024-02-20T01:02:09.175Z,0.83
2024-02-20T01:03:09.213Z,0.91
2024-02-20T01:04:09.323Z,0.85
2024-02-20T01:05:09.242Z,0.78
2024-02-20T01:06:09.329Z,0.73
2024-02-20T01:07:09.486Z,1.03
2024-02-20T01:08:09.336Z,1.05
2024-02-20T01:09:09.379Z,0.94
2024-02-20T01:10:09.450Z,0.72
2024-02-20T01:11:09.440Z,0.65
2024-02-20T01:12:09.518Z,2.10
2024-02-20T01:13:09.525Z,0.95
2024-02-20T01:14:09.530Z,1.03
2024-02-20T01:15:09.555Z,1.28
2024-02-20T01:16:09.670Z,0.91
2024-02-20T01:17:09.642Z,0.90
2024-02-20T01:18:09.717Z,0.95
2024-02-20T01:19:09.901Z,0.89
2024-02-20T01:20:09.813Z,0.87
2024-02-20T01:21:09.801Z,0.93
2024-02-20T01:22:09.882Z,1.22
2024-02-20T01:23:10.077Z,0.90
2024-02-20T01:24:09.913Z,1.17
2024-02-20T01:25:09.957Z,0.81
2024-02-20T01:26:09.976Z,1.13
2024-02-20T01:27:10.018Z,1.15
2024-02-20T01:28:10.069Z,0.89
2024-02-20T01:29:10.123Z,0.85
2024-02-20T01:30:10.117Z,0.93
2024-02-20T01:31:10.174Z,0.84
2024-02-20T01:32:10.186Z,0.97
2024-02-20T01:33:10.269Z,0.67
2024-02-20T01:34:10.300Z,0.97
2024-02-20T01:35:10.463Z,0.84
2024-02-20T01:36:10.331Z,0.78
2024-02-20T01:37:10.381Z,1.12
2024-02-20T01:38:10.419Z,0.98
2024-02-20T01:39:10.452Z,0.69
2024-02-20T01:40:10.554Z,0.89
2024-02-20T01:41:10.521Z,1.05
2024-02-20T01:42:10.565Z,0.84
2024-02-20T01:43:10.736Z,0.89
2024-02-20T01:44:10.698Z,0.73
2024-02-20T01:45:10.690Z,0.84
2024-02-20T01:46:10.858Z,0.80
2024-02-20T01:47:10.754Z,0.93
2024-02-20T01:48:10.840Z,0.99
2024-02-20T01:49:11.072Z,0.65
2024-02-20T01:50:11.042Z,1.09
2024-02-20T01:51:10.922Z,0.84
2024-02-20T01:52:10.998Z,0.61
2024-02-20T01:53:10.993Z,0.97
2024-02-20T01:54:11.041Z,0.86
2024-02-20T01:55:11.104Z,0.95
2024-02-20T01:56:11.118Z,0.75
2024-02-20T01:57:11.166Z,0.97
2024-02-20T01:58:11.220Z,1.21
2024-02-20T01:59:11.228Z,0.96
2024-02-20T02:00:11.263Z,0.99
2024-02-20T02:01:11.470Z,0.57
2024-02-20T02:02:11.340Z,0.86
2024-02-20T02:03:11.377Z,0.74
2024-02-20T02:04:11.506Z,1.03
2024-02-20T02:05:11.727Z,1.14
2024-02-20T02:06:11.537Z,0.97
2024-02-20T02:07:11.657Z,1.07
2024-02-20T02:08:11.560Z,1.17
2024-02-20T02:09:11.602Z,0.92
2024-02-20T02:10:11.682Z,0.89
2024-02-20T02:11:11.730Z,0.90
2024-02-20T02:12:11.716Z,0.96
2024-02-20T02:13:11.761Z,0.94
2024-02-20T02:14:11.799Z,1.00
2024-02-20T02:15:11.846Z,1.06
2024-02-20T02:16:11.926Z,0.91
2024-02-20T02:17:11.915Z,1.03
2024-02-20T02:18:12.083Z,0.64
2024-02-20T02:19:12.091Z,1.04
2024-02-20T02:20:12.116Z,0.96
2024-02-20T02:21:12.085Z,0.86
2024-02-20T02:22:12.159Z,1.37
2024-02-20T02:23:12.158Z,0.82
2024-02-20T02:24:12.200Z,0.79
2024-02-20T02:25:12.292Z,1.05
2024-02-20T02:26:12.292Z,0.97
2024-02-20T02:27:12.330Z,0.98
2024-02-20T02:28:12.401Z,0.84
2024-02-20T02:29:12.421Z,1.18
2024-02-20T02:30:12.436Z,0.99
2024-02-20T02:31:12.591Z,0.73
2024-02-20T02:32:12.517Z,1.24
2024-02-20T02:33:12.654Z,1.03
2024-02-20T02:34:12.636Z,1.26
2024-02-20T02:35:12.809Z,0.79
2024-02-20T02:36:12.677Z,0.93
2024-02-20T02:37:12.780Z,1.02
2024-02-20T02:38:12.759Z,0.77
2024-02-20T02:39:12.805Z,1.01
2024-02-20T02:40:12.896Z,0.87
2024-02-20T02:41:12.893Z,0.63
2024-02-20T02:42:12.928Z,1.11
2024-02-20T02:43:12.991Z,0.85
2024-02-20T02:44:13.029Z,0.91
2024-02-20T02:45:13.052Z,1.05
2024-02-20T02:46:13.116Z,1.04
2024-02-20T02:47:13.151Z,1.10
2024-02-20T02:48:13.282Z,1.01
2024-02-20T02:49:13.431Z,0.82
2024-02-20T02:50:13.392Z,0.93
2024-02-20T02:51:13.290Z,1.25
2024-02-20T02:52:13.343Z,1.35
2024-02-20T02:53:13.366Z,1.04
2024-02-20T02:54:13.422Z,1.12
2024-02-20T02:55:13.511Z,0.81
2024-02-20T02:56:13.506Z,0.76
2024-02-20T02:57:13.569Z,1.29
2024-02-20T02:58:13.684Z,0.90
2024-02-20T02:59:13.637Z,1.17
2024-02-20T03:00:13.675Z,1.00
2024-02-20T03:01:13.763Z,1.03
2024-02-20T03:02:13.848Z,0.99
2024-02-20T03:03:13.849Z,0.70
2024-02-20T03:04:13.930Z,0.89
2024-02-20T03:05:13.897Z,0.80
2024-02-20T03:06:13.981Z,0.84
2024-02-20T03:07:14.060Z,0.91
2024-02-20T03:08:14.043Z,1.03
2024-02-20T03:09:14.608Z,1.08
2024-02-20T03:10:14.118Z,0.69
2024-02-20T03:11:14.182Z,0.77
2024-02-20T03:12:14.200Z,1.02
2024-02-20T03:13:14.264Z,0.91
2024-02-20T03:14:14.282Z,0.84
2024-02-20T03:15:14.329Z,0.89
2024-02-20T03:16:14.396Z,0.86
2024-02-20T03:17:14.407Z,0.92
2024-02-20T03:18:14.479Z,0.96
2024-02-20T03:19:14.576Z,0.70
2024-02-20T03:20:14.535Z,0.76
2024-02-20T03:21:14.588Z,0.64
2024-02-20T03:22:14.656Z,0.83
2024-02-20T03:23:14.737Z,1.12
2024-02-20T03:24:14.703Z,0.66
2024-02-20T03:25:14.765Z,1.09
2024-02-20T03:26:14.792Z,0.84
2024-02-20T03:27:14.827Z,0.92
2024-02-20T03:28:14.921Z,0.99
2024-02-20T03:29:14.905Z,0.81
2024-02-20T03:30:14.955Z,0.72
2024-02-20T03:31:15.034Z,0.88
2024-02-20T03:32:15.046Z,0.78
2024-02-20T03:33:15.176Z,1.11
2024-02-20T03:34:15.268Z,1.07
2024-02-20T03:35:15.205Z,0.78
2024-02-20T03:36:15.213Z,0.93
2024-02-20T03:37:15.275Z,0.88
2024-02-20T03:38:15.308Z,1.05
2024-02-20T03:39:15.312Z,0.89
2024-02-20T03:40:15.398Z,0.89
2024-02-20T03:41:15.412Z,0.77
2024-02-20T03:42:15.438Z,0.84
2024-02-20T03:43:15.562Z,0.91
2024-02-20T03:44:15.530Z,0.91
2024-02-20T03:45:15.568Z,0.93
2024-02-20T03:46:15.652Z,0.74
2024-02-20T03:47:15.644Z,1.19
2024-02-20T03:48:15.880Z,0.84
2024-02-20T03:49:16.056Z,0.85
2024-02-20T03:50:15.961Z,0.59
2024-02-20T03:51:15.827Z,0.97
2024-02-20T03:52:15.897Z,0.82
2024-02-20T03:53:15.913Z,0.88
2024-02-20T03:54:15.952Z,0.69
2024-02-20T03:55:16.010Z,0.79
2024-02-20T03:56:16.135Z,0.96
2024-02-20T03:57:16.545Z,0.91
2024-02-20T03:58:16.180Z,1.02
2024-02-20T03:59:16.201Z,0.97
2024-02-20T04:00:16.511Z,0.84
2024-02-20T04:01:16.332Z,1.19
2024-02-20T04:02:16.265Z,0.87
2024-02-20T04:03:16.476Z,0.85
2024-02-20T04:04:16.468Z,0.97
2024-02-20T04:05:19.006Z,0.89
2024-02-20T04:06:16.432Z,0.85
2024-02-20T04:07:16.409Z,0.84
2024-02-20T04:08:16.380Z,0.78
2024-02-20T04:09:16.382Z,0.82
2024-02-20T04:10:16.576Z,0.86
2024-02-20T04:11:16.381Z,0.88
2024-02-20T04:12:23.542Z,0.86
2024-02-20T04:13:23.550Z,1.12
2024-02-20T04:14:23.542Z,0.93
2024-02-20T04:15:23.554Z,0.84
2024-02-20T04:16:23.574Z,0.84
2024-02-20T04:17:23.547Z,0.90
2024-02-20T04:18:23.604Z,0.71
2024-02-20T04:19:23.676Z,0.69
2024-02-20T04:20:23.569Z,0.81
2024-02-20T04:21:23.555Z,0.89
2024-02-20T04:22:23.587Z,0.77
2024-02-20T04:23:23.546Z,0.75
2024-02-20T04:24:23.552Z,0.66
2024-02-20T04:25:23.610Z,0.68
2024-02-20T04:26:23.554Z,0.86
2024-02-20T04:27:23.545Z,0.58
2024-02-20T04:28:23.582Z,0.67
2024-02-20T04:29:23.668Z,0.81
2024-02-20T04:30:23.576Z,0.86
2024-02-20T04:31:30.783Z,0.63
2024-02-20T04:32:30.742Z,0.70
2024-02-20T04:33:30.786Z,0.84
2024-02-20T04:34:30.800Z,0.80
2024-02-20T04:35:30.721Z,0.56
2024-02-20T04:36:30.727Z,0.67
2024-02-20T04:37:30.832Z,0.75
2024-02-20T04:38:30.720Z,0.94
2024-02-20T04:39:30.719Z,0.85
2024-02-20T04:40:30.752Z,0.67
2024-02-20T04:41:30.716Z,0.72
2024-02-20T04:42:30.723Z,0.73
2024-02-20T04:43:30.800Z,0.96
2024-02-20T04:44:30.717Z,0.88
2024-02-20T04:45:30.723Z,0.95
2024-02-20T04:46:30.899Z,0.54
2024-02-20T04:47:30.755Z,0.85
2024-02-20T04:48:30.895Z,0.75
2024-02-20T04:49:30.841Z,0.77
2024-02-20T04:50:30.729Z,0.90
2024-02-20T04:51:30.724Z,0.70
2024-02-20T04:52:30.769Z,0.67
2024-02-20T04:53:30.730Z,0.67
2024-02-20T04:54:30.727Z,1.00
2024-02-20T04:55:30.812Z,0.79
2024-02-20T04:56:30.733Z,0.69
2024-02-20T04:57:30.735Z,0.73
2024-02-20T04:58:30.789Z,0.78
2024-02-20T04:59:30.734Z,0.99
2024-02-20T05:00:30.741Z,0.95
2024-02-20T05:01:30.930Z,0.96
2024-02-20T05:02:30.868Z,0.83
2024-02-20T05:03:30.975Z,0.82
2024-02-20T05:04:31.164Z,0.90
2024-02-20T05:05:31.133Z,0.80
2024-02-20T05:06:31.150Z,0.91
2024-02-20T05:07:31.220Z,0.56
2024-02-20T05:08:31.251Z,0.61
2024-02-20T05:09:31.320Z,0.95
2024-02-20T05:10:31.462Z,0.74
2024-02-20T05:11:31.472Z,1.00
2024-02-20T05:12:31.517Z,0.65
2024-02-20T05:13:31.627Z,0.94
2024-02-20T05:14:31.663Z,0.72
2024-02-20T05:15:31.716Z,0.83
2024-02-20T05:16:31.906Z,0.56
2024-02-20T05:17:32.913Z,0.79
2024-02-20T05:18:31.936Z,0.72
2024-02-20T05:19:32.008Z,0.77
2024-02-20T05:20:32.093Z,0.84
2024-02-20T05:21:32.178Z,0.79
2024-02-20T05:22:32.178Z,1.08
2024-02-20T05:23:32.236Z,0.90
2024-02-20T05:24:32.285Z,0.73
2024-02-20T05:25:32.399Z,0.77
2024-02-20T05:26:32.414Z,0.91
2024-02-20T05:27:32.457Z,0.93
2024-02-20T05:28:32.551Z,0.90
2024-02-20T05:29:32.586Z,0.80
2024-02-20T05:30:32.658Z,0.65
2024-02-20T05:31:32.894Z,0.69
2024-02-20T05:32:32.886Z,0.94
2024-02-20T05:33:32.881Z,0.67
2024-02-20T05:34:32.967Z,0.70
2024-02-20T05:35:35.196Z,0.82
2024-02-20T05:36:33.267Z,0.81
2024-02-20T05:37:33.027Z,0.94
2024-02-20T05:38:32.973Z,0.75
2024-02-20T05:39:32.977Z,0.85
2024-02-20T05:40:33.008Z,0.86
2024-02-20T05:41:33.044Z,0.96
2024-02-20T05:42:32.974Z,0.75
2024-02-20T05:43:33.118Z,0.78
2024-02-20T05:44:32.987Z,0.65
2024-02-20T05:45:32.992Z,0.87
2024-02-20T05:46:32.995Z,0.87
2024-02-20T05:47:33.045Z,0.76
2024-02-20T05:48:33.104Z,0.73
2024-02-20T05:49:33.102Z,0.60
2024-02-20T05:50:33.161Z,0.78
2024-02-20T05:51:33.014Z,0.63
2024-02-20T05:52:33.895Z,0.81
2024-02-20T05:53:32.978Z,0.64
2024-02-20T05:54:32.982Z,0.58
2024-02-20T05:55:33.056Z,1.02
2024-02-20T05:56:33.002Z,0.83
2024-02-20T05:57:32.985Z,1.21
2024-02-20T05:58:33.095Z,1.11
2024-02-20T05:59:32.997Z,0.96
2024-02-20T06:00:33.094Z,0.74
2024-02-20T06:01:33.127Z,1.17
2024-02-20T06:02:33.916Z,0.66
2024-02-20T06:03:33.017Z,0.79
2024-02-20T06:04:33.146Z,0.76
2024-02-20T06:05:33.361Z,0.79
2024-02-20T06:06:33.246Z,1.04
2024-02-20T06:07:33.259Z,0.77
2024-02-20T06:08:33.288Z,0.80
2024-02-20T06:09:33.364Z,0.77
2024-02-20T06:10:33.463Z,0.94
2024-02-20T06:11:33.567Z,0.92
2024-02-20T06:12:33.566Z,1.02
2024-02-20T06:13:33.689Z,0.65
2024-02-20T06:14:33.713Z,0.67
2024-02-20T06:15:33.764Z,0.78
2024-02-20T06:16:33.847Z,0.74
2024-02-20T06:17:33.944Z,0.94
2024-02-20T06:18:34.001Z,1.05
2024-02-20T06:19:34.080Z,0.91
2024-02-20T06:20:34.110Z,0.80
2024-02-20T06:21:34.168Z,0.66
2024-02-20T06:22:34.316Z,0.96
2024-02-20T06:23:35.248Z,1.26
2024-02-20T06:24:34.271Z,1.11
2024-02-20T06:25:34.336Z,0.81
2024-02-20T06:26:34.242Z,1.01
2024-02-20T06:27:34.273Z,0.82
2024-02-20T06:28:34.279Z,1.05
2024-02-20T06:29:34.284Z,0.96
2024-02-20T06:30:34.313Z,1.01
2024-02-20T06:31:34.430Z,1.05
2024-02-20T06:32:35.201Z,1.08
2024-02-20T06:33:34.514Z,1.03
2024-02-20T06:34:34.647Z,1.02
2024-02-20T06:35:34.537Z,1.21
2024-02-20T06:36:34.605Z,1.00
2024-02-20T06:37:34.627Z,1.11
2024-02-20T06:38:34.624Z,1.29
2024-02-20T06:39:34.646Z,0.99
2024-02-20T06:40:34.679Z,1.27
2024-02-20T06:41:34.709Z,1.17
2024-02-20T06:42:34.718Z,1.15
2024-02-20T06:43:34.877Z,1.26
2024-02-20T06:44:34.723Z,1.00
2024-02-20T06:45:35.295Z,0.98
2024-02-20T06:46:34.770Z,1.05
2024-02-20T06:47:34.858Z,1.62
2024-02-20T06:48:34.833Z,1.38
2024-02-20T06:49:34.891Z,1.57
2024-02-20T06:50:34.861Z,1.65
2024-02-20T06:51:34.851Z,1.47
2024-02-20T06:52:35.005Z,1.46
2024-02-20T06:53:34.946Z,1.64
2024-02-20T06:54:35.001Z,1.26
2024-02-20T06:55:35.086Z,0.91
2024-02-20T06:56:35.122Z,1.67
2024-02-20T06:57:35.258Z,1.64
2024-02-20T06:58:35.285Z,1.78
2024-02-20T06:59:35.306Z,1.39
2024-02-20T07:00:35.490Z,1.61
2024-02-20T07:01:35.506Z,1.52
2024-02-20T07:02:35.468Z,1.58
2024-02-20T07:03:35.544Z,1.48
2024-02-20T07:04:35.680Z,1.29
2024-02-20T07:05:36.749Z,1.63
2024-02-20T07:06:36.376Z,1.36
2024-02-20T07:07:35.729Z,1.43
2024-02-20T07:08:35.601Z,1.61
2024-02-20T07:09:35.595Z,1.32
2024-02-20T07:10:35.659Z,2.00
2024-02-20T07:11:35.658Z,1.76
2024-02-20T07:12:35.611Z,1.95
2024-02-20T07:13:35.625Z,1.20
2024-02-20T07:14:35.613Z,1.72
2024-02-20T07:15:35.606Z,1.52
2024-02-20T07:16:35.661Z,2.06
2024-02-20T07:17:35.716Z,1.70
2024-02-20T07:18:35.736Z,1.61
2024-02-20T07:19:35.819Z,1.92
2024-02-20T07:20:35.751Z,1.56
2024-02-20T07:21:35.763Z,2.27
2024-02-20T07:22:35.796Z,3.59
2024-02-20T07:23:35.803Z,1.92
2024-02-20T07:24:36.401Z,3.42
2024-02-20T07:25:35.926Z,2.95
2024-02-20T07:26:36.823Z,3.32
2024-02-20T07:27:35.907Z,2.08
2024-02-20T07:28:36.963Z,2.65
2024-02-20T07:29:35.917Z,2.38
2024-02-20T07:30:35.931Z,3.39
2024-02-20T07:31:36.633Z,1.99
2024-02-20T07:32:36.901Z,2.49
2024-02-20T07:33:37.710Z,2.40
2024-02-20T07:34:35.957Z,2.49
2024-02-20T07:35:37.064Z,2.41
2024-02-20T07:36:35.916Z,3.12
2024-02-20T07:37:37.449Z,2.72
2024-02-20T07:38:36.935Z,2.66
2024-02-20T07:39:36.948Z,3.35
2024-02-20T07:40:36.070Z,2.43
2024-02-20T07:41:37.003Z,3.15
2024-02-20T07:42:35.924Z,2.91
2024-02-20T07:43:38.181Z,3.09
2024-02-20T07:44:36.052Z,3.11
2024-02-20T07:45:36.085Z,2.77
2024-02-20T07:46:36.203Z,3.34
2024-02-20T07:47:36.633Z,2.99
2024-02-20T07:48:36.423Z,3.29
2024-02-20T07:49:36.504Z,2.15
2024-02-20T07:50:36.484Z,3.05
2024-02-20T07:51:36.491Z,2.94
2024-02-20T07:52:36.565Z,2.35
2024-02-20T07:53:36.601Z,2.40
2024-02-20T07:54:36.706Z,3.31
2024-02-20T07:55:36.771Z,3.13
2024-02-20T07:56:36.814Z,2.77
2024-02-20T07:57:36.882Z,2.75
2024-02-20T07:58:40.754Z,2.47
2024-02-20T07:59:38.908Z,2.72
2024-02-20T08:00:36.956Z,2.53
2024-02-20T08:01:37.079Z,2.85
2024-02-20T08:02:36.959Z,2.78
2024-02-20T08:03:36.972Z,2.86
2024-02-20T08:04:37.099Z,3.29
2024-02-20T08:05:37.095Z,2.09
2024-02-20T08:06:37.010Z,2.40
2024-02-20T08:07:39.002Z,2.41
2024-02-20T08:08:38.929Z,2.75
2024-02-20T08:09:37.139Z,2.07
2024-02-20T08:10:37.155Z,3.18
2024-02-20T08:11:37.162Z,3.41
2024-02-20T08:12:37.054Z,3.36
2024-02-20T08:13:37.156Z,2.31
2024-02-20T08:14:37.050Z,2.88
2024-02-20T08:15:37.834Z,3.73
2024-02-20T08:16:37.132Z,3.41
2024-02-20T08:17:37.951Z,2.67
2024-02-20T08:18:37.255Z,3.32
2024-02-20T08:19:37.475Z,2.48
2024-02-20T08:20:37.380Z,3.24
2024-02-20T08:21:37.431Z,3.33
2024-02-20T08:22:37.503Z,2.86
2024-02-20T08:23:37.565Z,2.96
2024-02-20T08:24:37.623Z,3.64
2024-02-20T08:25:37.687Z,2.50
2024-02-20T08:26:37.745Z,2.50
2024-02-20T08:27:37.832Z,2.50
2024-02-20T08:28:41.301Z,2.90
2024-02-20T08:29:38.027Z,2.49
2024-02-20T08:30:38.430Z,2.88
2024-02-20T08:31:37.895Z,1.82
2024-02-20T08:32:37.862Z,3.04
2024-02-20T08:33:37.925Z,2.86
2024-02-20T08:34:37.903Z,2.89
2024-02-20T08:35:37.933Z,3.28
2024-02-20T08:36:37.903Z,2.23
2024-02-20T08:37:37.921Z,2.17
2024-02-20T08:38:37.840Z,2.96
2024-02-20T08:39:37.840Z,2.92
2024-02-20T08:40:37.912Z,2.96
2024-02-20T08:41:37.942Z,2.91
2024-02-20T08:42:37.854Z,2.76
2024-02-20T08:43:37.876Z,2.70
2024-02-20T08:44:37.903Z,2.22
2024-02-20T08:45:37.845Z,2.64
2024-02-20T08:46:37.936Z,2.26
2024-02-20T08:47:37.927Z,2.76
2024-02-20T08:48:37.864Z,2.51
2024-02-20T08:49:37.916Z,2.03
2024-02-20T08:50:37.881Z,2.73
2024-02-20T08:51:37.947Z,2.42
2024-02-20T08:52:38.014Z,1.83
2024-02-20T08:53:38.036Z,3.15
2024-02-20T08:54:38.112Z,2.22
2024-02-20T08:55:38.260Z,2.41
2024-02-20T08:56:38.223Z,2.57
2024-02-20T08:57:38.281Z,2.07
2024-02-20T08:58:38.349Z,2.38
2024-02-20T08:59:38.399Z,2.55
2024-02-20T09:00:38.557Z,1.74
2024-02-20T09:01:38.626Z,2.29
2024-02-20T09:02:38.596Z,2.19
2024-02-20T09:03:38.675Z,2.70
2024-02-20T09:04:38.749Z,3.09
2024-02-20T09:05:38.898Z,2.94
2024-02-20T09:06:38.812Z,2.27
2024-02-20T09:07:38.877Z,2.13
2024-02-20T09:08:38.865Z,2.11
2024-02-20T09:09:38.922Z,2.27
2024-02-20T09:10:39.111Z,2.19
2024-02-20T09:11:39.080Z,2.79
2024-02-20T09:12:39.073Z,2.44
2024-02-20T09:13:39.166Z,2.48
2024-02-20T09:14:39.206Z,2.55
2024-02-20T09:15:39.260Z,3.38
2024-02-20T09:16:39.425Z,3.10
2024-02-20T09:17:39.334Z,3.27
2024-02-20T09:18:39.422Z,3.33
2024-02-20T09:19:39.620Z,3.42
2024-02-20T09:20:39.531Z,3.07
2024-02-20T09:21:39.490Z,4.52
2024-02-20T09:22:39.589Z,4.06
2024-02-20T09:23:40.519Z,4.60
2024-02-20T09:24:39.527Z,3.72
2024-02-20T09:25:39.586Z,4.12
2024-02-20T09:26:39.525Z,4.46
2024-02-20T09:27:39.547Z,4.05
2024-02-20T09:28:39.573Z,4.24
2024-02-20T09:29:40.451Z,3.85
2024-02-20T09:30:39.537Z,3.63
2024-02-20T09:31:39.603Z,4.10
2024-02-20T09:32:39.556Z,3.90
2024-02-20T09:33:39.643Z,4.07
2024-02-20T09:34:39.620Z,3.77
2024-02-20T09:35:39.568Z,4.30
2024-02-20T09:36:40.488Z,4.21
2024-02-20T09:37:39.634Z,3.55
2024-02-20T09:38:39.649Z,4.31
2024-02-20T09:39:39.658Z,4.04
2024-02-20T09:40:39.752Z,3.87
2024-02-20T09:41:39.749Z,3.81
2024-02-20T09:42:41.760Z,3.48
2024-02-20T09:43:39.819Z,3.65
2024-02-20T09:44:39.849Z,3.57
2024-02-20T09:45:39.811Z,4.44
2024-02-20T09:46:39.886Z,3.98
2024-02-20T09:47:39.832Z,3.97
2024-02-20T09:48:39.893Z,3.68
2024-02-20T09:49:39.940Z,3.93
2024-02-20T09:50:39.820Z,3.83
2024-02-20T09:51:40.884Z,3.66
2024-02-20T09:52:39.938Z,3.49
2024-02-20T09:53:39.869Z,3.58
2024-02-20T09:54:39.817Z,3.16
2024-02-20T09:55:39.857Z,3.65
2024-02-20T09:56:39.825Z,3.23
2024-02-20T09:57:39.829Z,3.46
2024-02-20T09:58:39.878Z,3.41
2024-02-20T09:59:39.828Z,3.41
2024-02-20T10:00:39.905Z,3.64
2024-02-20T10:01:40.583Z,2.86
2024-02-20T10:02:39.838Z,3.47
2024-02-20T10:03:40.385Z,3.42
2024-02-20T10:04:40.039Z,4.17
2024-02-20T10:05:40.084Z,3.72
2024-02-20T10:06:40.034Z,4.08
2024-02-20T10:07:40.029Z,2.88
2024-02-20T10:08:40.040Z,3.38
2024-02-20T10:09:40.025Z,3.17
2024-02-20T10:10:42.044Z,3.24
2024-02-20T10:11:40.237Z,3.32
2024-02-20T10:12:40.159Z,3.81
2024-02-20T10:13:40.200Z,3.33
2024-02-20T10:14:40.191Z,3.32
2024-02-20T10:15:40.226Z,2.99
2024-02-20T10:16:44.163Z,3.34
2024-02-20T10:17:40.287Z,3.77
2024-02-20T10:18:40.271Z,3.46
2024-02-20T10:19:40.351Z,3.88
2024-02-20T10:20:40.398Z,3.76
2024-02-20T10:21:40.266Z,2.37
2024-02-20T10:22:42.377Z,2.32
2024-02-20T10:23:40.295Z,2.31
2024-02-20T10:24:40.277Z,2.68
2024-02-20T10:25:40.356Z,1.71
2024-02-20T10:26:40.377Z,1.86
2024-02-20T10:27:40.292Z,1.44
2024-02-20T10:28:40.308Z,1.17
2024-02-20T10:29:40.303Z,1.42
2024-02-20T10:30:40.281Z,1.22
2024-02-20T10:31:40.327Z,1.19
2024-02-20T10:32:40.352Z,1.17
2024-02-20T10:33:40.436Z,1.27
2024-02-20T10:34:40.398Z,1.15
2024-02-20T10:35:40.452Z,1.24
2024-02-20T10:36:40.290Z,1.24
2024-02-20T10:37:40.938Z,1.27
2024-02-20T10:38:44.431Z,1.05
2024-02-20T10:39:41.401Z,1.08
2024-02-20T10:40:40.363Z,1.30
2024-02-20T10:41:40.387Z,1.18
2024-02-20T10:42:40.296Z,1.11
2024-02-20T10:43:40.374Z,1.20
2024-02-20T10:44:40.316Z,0.98
2024-02-20T10:45:40.301Z,1.09
2024-02-20T10:46:40.450Z,1.90
2024-02-20T10:47:40.348Z,1.63
2024-02-20T10:48:40.349Z,1.40
2024-02-20T10:49:40.392Z,1.25
2024-02-20T10:50:40.372Z,1.47
2024-02-20T10:51:40.323Z,1.07
2024-02-20T10:52:40.921Z,1.29
2024-02-20T10:53:40.408Z,1.26
2024-02-20T10:54:46.632Z,1.50
2024-02-20T10:55:41.508Z,1.21
2024-02-20T10:56:40.458Z,1.35
2024-02-20T10:57:40.516Z,1.90
2024-02-20T10:58:40.508Z,1.50
2024-02-20T10:59:40.467Z,1.06
2024-02-20T11:00:43.030Z,1.53
2024-02-20T11:01:41.035Z,1.72
2024-02-20T11:02:41.003Z,1.39
2024-02-20T11:03:49.230Z,1.64
2024-02-20T11:04:41.556Z,1.77
2024-02-20T11:05:40.639Z,1.63
2024-02-20T11:06:41.709Z,1.34
2024-02-20T11:07:40.554Z,1.45
2024-02-20T11:08:40.555Z,1.45
2024-02-20T11:09:40.488Z,1.51
2024-02-20T11:10:41.014Z,2.03
2024-02-20T11:11:40.525Z,1.64
2024-02-20T11:12:40.561Z,1.46
2024-02-20T11:13:40.532Z,1.75
2024-02-20T11:14:40.989Z,1.59
2024-02-20T11:15:40.481Z,2.01
2024-02-20T11:16:48.000Z,1.78
2024-02-20T11:17:41.602Z,1.84
2024-02-20T11:18:40.528Z,1.79
2024-02-20T11:19:40.707Z,1.94
2024-02-20T11:20:40.486Z,1.96
2024-02-20T11:21:40.519Z,1.81
2024-02-20T11:22:40.575Z,1.88
2024-02-20T11:23:40.502Z,1.92
2024-02-20T11:24:40.506Z,1.48
2024-02-20T11:25:40.669Z,1.97
2024-02-20T11:26:40.515Z,1.55
2024-02-20T11:27:40.504Z,1.51
2024-02-20T11:28:40.850Z,1.89
2024-02-20T11:29:40.538Z,1.87
2024-02-20T11:30:40.512Z,1.73
2024-02-20T11:31:40.599Z,1.72
2024-02-20T11:32:40.598Z,1.57
2024-02-20T11:33:40.712Z,1.75
2024-02-20T11:34:40.835Z,2.30
2024-02-20T11:35:43.235Z,2.14
2024-02-20T11:36:40.707Z,1.43
2024-02-20T11:37:49.097Z,1.90
2024-02-20T11:38:41.715Z,1.57
2024-02-20T11:39:40.720Z,1.97
2024-02-20T11:40:40.896Z,1.88
2024-02-20T11:41:42.775Z,1.31
2024-02-20T11:42:40.707Z,1.75
2024-02-20T11:43:40.724Z,1.94
2024-02-20T11:44:40.722Z,1.69
2024-02-20T11:45:40.714Z,1.71
2024-02-20T11:46:40.768Z,2.13
2024-02-20T11:47:40.780Z,1.56
2024-02-20T11:48:40.857Z,1.58
2024-02-20T11:49:40.753Z,1.66
2024-02-20T11:50:40.758Z,1.69
2024-02-20T11:51:40.734Z,1.60
2024-02-20T11:52:40.813Z,1.37
2024-02-20T11:53:40.758Z,1.49
2024-02-20T11:54:40.733Z,1.33
2024-02-20T11:55:40.924Z,1.55
2024-02-20T11:56:40.743Z,1.54
2024-02-20T11:57:40.744Z,1.59
2024-02-20T11:58:40.797Z,1.08
2024-02-20T11:59:40.747Z,1.28
2024-02-20T12:00:40.841Z,2.02
2024-02-20T12:01:40.951Z,1.35
2024-02-20T12:02:40.774Z,1.84
2024-02-20T12:03:40.758Z,2.01
2024-02-20T12:04:40.853Z,2.20
2024-02-20T12:05:40.889Z,2.09
2024-02-20T12:06:40.785Z,2.29
2024-02-20T12:07:40.877Z,1.87
2024-02-20T12:08:40.772Z,3.22
2024-02-20T12:09:40.769Z,1.87
2024-02-20T12:10:40.829Z,2.26
2024-02-20T12:11:40.801Z,2.08
2024-02-20T12:12:40.770Z,2.02
2024-02-20T12:13:40.970Z,2.03
2024-02-20T12:14:40.775Z,2.27
2024-02-20T12:15:40.768Z,1.85
2024-02-20T12:16:40.820Z,1.68
2024-02-20T12:17:40.816Z,2.21
2024-02-20T12:18:40.876Z,2.36
2024-02-20T12:19:40.859Z,1.77
2024-02-20T12:20:40.792Z,1.74
2024-02-20T12:21:40.790Z,2.04
2024-02-20T12:22:40.892Z,1.72
2024-02-20T12:23:40.792Z,1.31
2024-02-20T12:24:40.787Z,1.84
2024-02-20T12:25:40.831Z,1.53
2024-02-20T12:26:40.806Z,1.99
2024-02-20T12:27:40.799Z,1.76
2024-02-20T12:28:40.919Z,1.77
2024-02-20T12:29:40.779Z,1.86
2024-02-20T12:30:40.789Z,1.40
2024-02-20T12:31:40.845Z,1.38
2024-02-20T12:32:40.855Z,1.46
2024-02-20T12:33:40.889Z,1.30
2024-02-20T12:34:45.658Z,1.62
2024-02-20T12:35:41.887Z,1.71
2024-02-20T12:36:40.794Z,1.47
2024-02-20T12:37:40.847Z,1.81
2024-02-20T12:38:40.801Z,1.55
2024-02-20T12:39:40.794Z,1.45
2024-02-20T12:40:40.832Z,1.55
2024-02-20T12:41:40.805Z,1.69
2024-02-20T12:42:40.806Z,1.57
2024-02-20T12:43:40.852Z,1.09
2024-02-20T12:44:40.805Z,1.42
2024-02-20T12:45:40.819Z,1.51
2024-02-20T12:46:40.856Z,1.42
2024-02-20T12:47:40.856Z,1.72
2024-02-20T12:48:40.855Z,2.17
2024-02-20T12:49:40.921Z,1.62
2024-02-20T12:50:40.810Z,1.63
2024-02-20T12:51:40.802Z,1.35
2024-02-20T12:52:40.885Z,1.82
2024-02-20T12:53:41.536Z,2.06
2024-02-20T12:54:40.853Z,1.45
2024-02-20T12:55:40.920Z,1.72
2024-02-20T12:56:40.928Z,1.39
2024-02-20T12:57:40.978Z,1.22
2024-02-20T12:58:43.240Z,1.91
2024-02-20T12:59:41.032Z,1.57
2024-02-20T13:00:41.040Z,1.32
2024-02-20T13:01:41.208Z,1.57
2024-02-20T13:02:41.043Z,1.55
2024-02-20T13:03:41.161Z,1.40
2024-02-20T13:04:41.135Z,1.31
2024-02-20T13:05:41.165Z,1.64
2024-02-20T13:06:41.071Z,1.67
2024-02-20T13:07:41.086Z,1.63
2024-02-20T13:08:41.050Z,1.35
2024-02-20T13:09:41.958Z,1.39
2024-02-20T13:10:41.153Z,1.20
2024-02-20T13:11:41.131Z,1.52
2024-02-20T13:12:41.063Z,2.29
2024-02-20T13:13:41.172Z,3.09
2024-02-20T13:14:41.191Z,1.18
2024-02-20T13:15:41.038Z,1.29
2024-02-20T13:16:41.080Z,1.39
2024-02-20T13:17:41.195Z,1.67
2024-02-20T13:18:41.139Z,1.17